Time,TemperatureF,DewpointF,PressureIn,WindDirection,WindDirectionDegrees,WindSpeedMPH,WindSpeedGustMPH,Humidity,HourlyPrecipIn,Conditions,Clouds,dailyrainin,SoftwareType,DateUTC
2013-05-19 00:01:00,54.0,35.0,-100.00,SW,233,6.0,13.0,48,-99.99,,,-99.99,,2013-05-19 07:01:00,
2013-05-19 00:11:00,54.0,35.0,-100.00,SW,233,6.0,13.0,48,-99.99,,,-99.99,,2013-05-19 07:11:00,
2013-05-19 00:21:00,54.0,33.0,-100.00,West,263,0.0,6.0,44,-99.99,,,-99.99,,2013-05-19 07:21:00,
2013-05-19 00:32:00,54.0,33.0,-100.00,West,263,0.0,6.0,44,-99.99,,,-99.99,,2013-05-19 07:32:00,
2013-05-19 00:42:00,51.0,34.0,-100.00,ESE,109,3.0,7.0,52,-99.99,,,-99.99,,2013-05-19 07:42:00,
2013-05-19 00:52:00,47.0,34.0,-100.00,East,97,6.0,9.0,60,-99.99,,,-99.99,,2013-05-19 07:52:00,
2013-05-19 01:01:00,47.0,34.0,-100.00,East,97,6.0,9.0,60,-99.99,,,-99.99,,2013-05-19 08:01:00,
2013-05-19 01:12:00,47.0,33.0,-100.00,East,88,5.0,8.0,58,-99.99,,,-99.99,,2013-05-19 08:12:00,
2013-05-19 01:21:00,47.0,33.0,-100.00,East,88,5.0,8.0,57,-99.99,,,-99.99,,2013-05-19 08:21:00,
2013-05-19 01:32:00,47.0,33.0,-100.00,East,95,4.0,7.0,58,-99.99,,,-99.99,,2013-05-19 08:32:00,
2013-05-19 01:41:00,44.0,32.0,-100.00,East,89,5.0,8.0,61,-99.99,,,-99.99,,2013-05-19 08:41:00,
2013-05-19 01:52:00,42.0,33.0,-100.00,East,88,6.0,9.0,69,-99.99,,,-99.99,,2013-05-19 08:52:00,
2013-05-19 02:02:00,42.0,32.0,-100.00,East,90,5.0,7.0,68,-99.99,,,-99.99,,2013-05-19 09:02:00,
2013-05-19 02:11:00,42.0,32.0,-100.00,East,90,5.0,7.0,68,-99.99,,,-99.99,,2013-05-19 09:11:00,
2013-05-19 02:21:00,41.0,32.0,-100.00,East,85,5.0,8.0,71,-99.99,,,-99.99,,2013-05-19 09:21:00,
2013-05-19 02:32:00,41.0,32.0,-100.00,East,85,5.0,8.0,71,-99.99,,,-99.99,,2013-05-19 09:32:00,
2013-05-19 02:42:00,41.0,34.0,-100.00,NE,44,0.0,3.0,77,-99.99,,,-99.99,,2013-05-19 09:42:00,
2013-05-19 02:53:00,41.0,33.0,-100.00,SE,138,1.0,5.0,73,-99.99,,,-99.99,,2013-05-19 09:53:00,
2013-05-19 03:02:00,41.0,33.0,-100.00,SE,138,1.0,5.0,73,-99.99,,,-99.99,,2013-05-19 10:02:00,
2013-05-19 03:12:00,40.0,34.0,-100.00,South,178,2.0,4.0,78,-99.99,,,-99.99,,2013-05-19 10:12:00,
2013-05-19 03:22:00,40.0,33.0,-100.00,SSE,161,2.0,3.0,77,-99.99,,,-99.99,,2013-05-19 10:22:00,
2013-05-19 03:32:00,41.0,34.0,-100.00,SSE,150,1.0,3.0,75,-99.99,,,-99.99,,2013-05-19 10:32:00,
2013-05-19 03:42:00,42.0,34.0,-100.00,SSE,167,0.0,2.0,74,-99.99,,,-99.99,,2013-05-19 10:42:00,
2013-05-19 03:52:00,42.0,34.0,-100.00,SSE,167,0.0,2.0,74,-99.99,,,-99.99,,2013-05-19 10:52:00,
2013-05-19 04:02:00,40.0,34.0,-100.00,ESE,114,2.0,6.0,79,-99.99,,,-99.99,,2013-05-19 11:02:00,
2013-05-19 04:11:00,40.0,34.0,-100.00,ESE,114,2.0,6.0,79,-99.99,,,-99.99,,2013-05-19 11:11:00,
2013-05-19 04:21:00,45.0,36.0,-100.00,NNE,30,3.0,8.0,71,-99.99,,,-99.99,,2013-05-19 11:21:00,
2013-05-19 04:32:00,45.0,36.0,-100.00,NNE,30,3.0,8.0,71,-99.99,,,-99.99,,2013-05-19 11:32:00,
2013-05-19 04:42:00,48.0,36.0,-100.00,NNW,329,6.0,10.0,63,-99.99,,,-99.99,,2013-05-19 11:42:00,
2013-05-19 04:52:00,48.0,36.0,-100.00,NNW,329,6.0,10.0,63,-99.99,,,-99.99,,2013-05-19 11:52:00,
2013-05-19 05:01:00,44.0,35.0,-100.00,NNE,32,3.0,6.0,70,-99.99,,,-99.99,,2013-05-19 12:01:00,
2013-05-19 05:11:00,44.0,35.0,-100.00,NNE,32,3.0,6.0,70,-99.99,,,-99.99,,2013-05-19 12:11:00,
2013-05-19 05:21:00,40.0,34.0,-100.00,SE,124,1.0,5.0,80,-99.99,,,-99.99,,2013-05-19 12:21:00,
2013-05-19 05:31:00,40.0,34.0,-100.00,SE,124,1.0,5.0,80,-99.99,,,-99.99,,2013-05-19 12:31:00,
2013-05-19 05:41:00,40.0,33.0,-100.00,SE,124,3.0,7.0,77,-99.99,,,-99.99,,2013-05-19 12:41:00,
2013-05-19 05:52:00,40.0,33.0,-100.00,SE,124,3.0,7.0,77,-99.99,,,-99.99,,2013-05-19 12:52:00,
2013-05-19 06:01:00,39.0,31.0,-100.00,ENE,76,4.0,7.0,74,-99.99,,,-99.99,,2013-05-19 13:01:00,
2013-05-19 06:11:00,38.0,31.0,-100.00,East,88,3.0,6.0,75,-99.99,,,-99.99,,2013-05-19 13:11:00,
2013-05-19 06:21:00,38.0,31.0,-100.00,East,88,3.0,6.0,75,-99.99,,,-99.99,,2013-05-19 13:21:00,
2013-05-19 06:31:00,38.0,31.0,-100.00,East,88,3.0,6.0,75,-99.99,,,-99.99,,2013-05-19 13:31:00,
2013-05-19 06:42:00,40.0,31.0,-100.00,ENE,78,4.0,6.0,72,-99.99,,,-99.99,,2013-05-19 13:42:00,
2013-05-19 06:52:00,40.0,31.0,-100.00,ENE,78,4.0,6.0,72,-99.99,,,-99.99,,2013-05-19 13:52:00,
2013-05-19 07:02:00,41.0,33.0,-100.00,East,83,3.0,4.0,73,-99.99,,,-99.99,,2013-05-19 14:02:00,
2013-05-19 07:11:00,41.0,33.0,-100.00,East,83,3.0,4.0,73,-99.99,,,-99.99,,2013-05-19 14:11:00,
2013-05-19 07:21:00,43.0,34.0,-100.00,East,80,2.0,6.0,69,-99.99,,,-99.99,,2013-05-19 14:21:00,
2013-05-19 07:32:00,45.0,35.0,-100.00,East,99,3.0,5.0,67,-99.99,,,-99.99,,2013-05-19 14:32:00,
2013-05-19 07:41:00,45.0,36.0,-100.00,ESE,119,2.0,5.0,69,-99.99,,,-99.99,,2013-05-19 14:41:00,
2013-05-19 07:51:00,47.0,35.0,-100.00,SE,133,1.0,3.0,64,-99.99,,,-99.99,,2013-05-19 14:51:00,
2013-05-19 08:01:00,48.0,37.0,-100.00,ESE,120,1.0,4.0,66,-99.99,,,-99.99,,2013-05-19 15:01:00,
2013-05-19 08:11:00,47.0,37.0,-100.00,ESE,123,2.0,4.0,67,-99.99,,,-99.99,,2013-05-19 15:11:00,
2013-05-19 08:21:00,50.0,38.0,-100.00,ENE,73,0.0,3.0,63,-99.99,,,-99.99,,2013-05-19 15:21:00,
2013-05-19 08:33:00,50.0,38.0,-100.00,ENE,73,0.0,3.0,63,-99.99,,,-99.99,,2013-05-19 15:33:00,
2013-05-19 08:43:00,51.0,37.0,-100.00,NNW,337,8.0,13.0,58,-99.99,,,-99.99,,2013-05-19 15:43:00,
2013-05-19 08:53:00,51.0,37.0,-100.00,NNW,337,8.0,13.0,58,-99.99,,,-99.99,,2013-05-19 15:53:00,
2013-05-19 09:03:00,52.0,36.0,-100.00,NNW,339,6.0,10.0,54,-99.99,,,-99.99,,2013-05-19 16:03:00,
2013-05-19 09:12:00,52.0,35.0,-100.00,NNW,336,4.0,9.0,53,-99.99,,,-99.99,,2013-05-19 16:12:00,
2013-05-19 09:23:00,52.0,35.0,-100.00,NNW,336,4.0,9.0,53,-99.99,,,-99.99,,2013-05-19 16:23:00,
2013-05-19 09:32:00,52.0,35.0,-100.00,NW,323,3.0,6.0,52,-99.99,,,-99.99,,2013-05-19 16:32:00,
2013-05-19 09:42:00,53.0,36.0,-100.00,WNW,299,1.0,6.0,52,-99.99,,,-99.99,,2013-05-19 16:42:00,
2013-05-19 09:52:00,56.0,38.0,-100.00,NW,313,0.0,4.0,50,-99.99,,,-99.99,,2013-05-19 16:52:00,
2013-05-19 10:02:00,55.0,37.0,-100.00,SW,216,1.0,4.0,49,-99.99,,,-99.99,,2013-05-19 17:02:00,
2013-05-19 10:12:00,55.0,37.0,-100.00,SW,216,1.0,4.0,49,-99.99,,,-99.99,,2013-05-19 17:12:00,
2013-05-19 10:22:00,55.0,37.0,-100.00,SW,219,2.0,4.0,51,-99.99,,,-99.99,,2013-05-19 17:22:00,
2013-05-19 10:32:00,55.0,36.0,-100.00,SSE,160,2.0,4.0,48,-99.99,,,-99.99,,2013-05-19 17:32:00,
2013-05-19 10:42:00,55.0,37.0,-100.00,West,272,5.0,9.0,50,-99.99,,,-99.99,,2013-05-19 17:42:00,
2013-05-19 10:52:00,55.0,37.0,-100.00,West,272,5.0,9.0,50,-99.99,,,-99.99,,2013-05-19 17:52:00,
2013-05-19 11:02:00,55.0,35.0,-100.00,WSW,258,3.0,9.0,47,-99.99,,,-99.99,,2013-05-19 18:02:00,
2013-05-19 11:12:00,55.0,35.0,-100.00,WSW,258,3.0,9.0,47,-99.99,,,-99.99,,2013-05-19 18:12:00,
2013-05-19 11:21:00,57.0,38.0,-100.00,West,268,3.0,8.0,48,-99.99,,,-99.99,,2013-05-19 18:21:00,
2013-05-19 11:32:00,57.0,38.0,-100.00,West,268,3.0,8.0,48,-99.99,,,-99.99,,2013-05-19 18:32:00,
2013-05-19 12:01:00,59.0,33.0,-100.00,SE,127,2.0,5.0,38,-99.99,,,-99.99,,2013-05-19 19:01:00,
2013-05-19 12:11:00,59.0,33.0,-100.00,SE,127,2.0,5.0,38,-99.99,,,-99.99,,2013-05-19 19:11:00,
2013-05-19 12:21:00,59.0,39.0,-100.00,South,186,5.0,16.0,47,-99.99,,,-99.99,,2013-05-19 19:21:00,
2013-05-19 12:32:00,59.0,38.0,-100.00,SSE,151,5.0,9.0,45,-99.99,,,-99.99,,2013-05-19 19:32:00,
2013-05-19 12:42:00,59.0,36.0,-100.00,SE,140,5.0,9.0,41,-99.99,,,-99.99,,2013-05-19 19:42:00,
2013-05-19 12:52:00,60.0,35.0,-100.00,SSW,208,5.0,10.0,39,-99.99,,,-99.99,,2013-05-19 19:52:00,
2013-05-19 13:02:00,61.0,40.0,-100.00,SW,229,4.0,9.0,46,-99.99,,,-99.99,,2013-05-19 20:02:00,
2013-05-19 13:11:00,61.0,40.0,-100.00,SW,229,4.0,9.0,46,-99.99,,,-99.99,,2013-05-19 20:11:00,
2013-05-19 13:21:00,60.0,35.0,-100.00,SSW,205,6.0,10.0,39,-99.99,,,-99.99,,2013-05-19 20:21:00,
2013-05-19 13:32:00,60.0,35.0,-100.00,SSW,205,6.0,10.0,39,-99.99,,,-99.99,,2013-05-19 20:32:00,
2013-05-19 13:41:00,61.0,38.0,-100.00,SSE,157,4.0,8.0,42,-99.99,,,-99.99,,2013-05-19 20:41:00,
2013-05-19 13:52:00,62.0,33.0,-100.00,SSE,157,4.0,11.0,33,-99.99,,,-99.99,,2013-05-19 20:52:00,
2013-05-19 14:02:00,62.0,33.0,-100.00,SSE,157,4.0,11.0,33,-99.99,,,-99.99,,2013-05-19 21:02:00,
2013-05-19 14:11:00,63.0,36.0,-100.00,SSE,165,4.0,8.0,36,-99.99,,,-99.99,,2013-05-19 21:11:00,
2013-05-19 14:22:00,63.0,36.0,-100.00,SSE,165,4.0,8.0,36,-99.99,,,-99.99,,2013-05-19 21:22:00,
2013-05-19 14:32:00,63.0,34.0,-100.00,South,175,5.0,11.0,34,-99.99,,,-99.99,,2013-05-19 21:32:00,
2013-05-19 14:43:00,63.0,30.0,-100.00,SSW,200,6.0,12.0,28,-99.99,,,-99.99,,2013-05-19 21:43:00,
2013-05-19 14:53:00,64.0,30.0,-100.00,SW,223,5.0,9.0,28,-99.99,,,-99.99,,2013-05-19 21:53:00,
2013-05-19 15:02:00,64.0,27.0,-100.00,West,267,5.0,12.0,25,-99.99,,,-99.99,,2013-05-19 22:02:00,
2013-05-19 15:12:00,64.0,27.0,-100.00,West,267,5.0,12.0,25,-99.99,,,-99.99,,2013-05-19 22:12:00,
2013-05-19 15:23:00,66.0,28.0,-100.00,WSW,237,5.0,10.0,24,-99.99,,,-99.99,,2013-05-19 22:23:00,
2013-05-19 15:33:00,66.0,28.0,-100.00,WSW,237,5.0,10.0,24,-99.99,,,-99.99,,2013-05-19 22:33:00,
2013-05-19 15:42:00,67.0,26.0,-100.00,WNW,302,5.0,11.0,21,-99.99,,,-99.99,,2013-05-19 22:42:00,
2013-05-19 15:53:00,67.0,26.0,-100.00,WNW,302,5.0,11.0,21,-99.99,,,-99.99,,2013-05-19 22:53:00,
2013-05-19 16:02:00,68.0,25.0,-100.00,West,275,3.0,9.0,20,-99.99,,,-99.99,,2013-05-19 23:02:00,
2013-05-19 16:11:00,68.0,25.0,-100.00,West,275,3.0,9.0,20,-99.99,,,-99.99,,2013-05-19 23:11:00,
2013-05-19 16:21:00,68.0,25.0,-100.00,West,275,3.0,9.0,20,-99.99,,,-99.99,,2013-05-19 23:21:00,
2013-05-19 16:42:00,69.0,29.0,-100.00,WNW,285,5.0,9.0,22,-99.99,,,-99.99,,2013-05-19 23:42:00,
2013-05-19 16:52:00,68.0,35.0,-100.00,NNW,337,5.0,16.0,29,-99.99,,,-99.99,,2013-05-19 23:52:00,
2013-05-19 17:02:00,68.0,35.0,-100.00,NNW,337,5.0,16.0,29,-99.99,,,-99.99,,2013-05-20 00:02:00,
2013-05-19 17:11:00,68.0,27.0,-100.00,NNW,335,8.0,17.0,21,-99.99,,,-99.99,,2013-05-20 00:11:00,
2013-05-19 17:21:00,68.0,28.0,-100.00,NNW,330,9.0,17.0,22,-99.99,,,-99.99,,2013-05-20 00:21:00,
2013-05-19 17:32:00,68.0,25.0,-100.00,NW,322,8.0,15.0,20,-99.99,,,-99.99,,2013-05-20 00:32:00,
2013-05-19 17:41:00,68.0,25.0,-100.00,NNW,337,6.0,15.0,19,-99.99,,,-99.99,,2013-05-20 00:41:00,
2013-05-19 17:52:00,68.0,25.0,-100.00,NNW,337,6.0,15.0,19,-99.99,,,-99.99,,2013-05-20 00:52:00,
2013-05-19 18:01:00,67.0,27.0,-100.00,NNW,328,11.0,17.0,22,-99.99,,,-99.99,,2013-05-20 01:01:00,
2013-05-19 18:11:00,67.0,26.0,-100.00,NW,312,12.0,19.0,21,-99.99,,,-99.99,,2013-05-20 01:11:00,
2013-05-19 18:21:00,67.0,32.0,-100.00,NW,315,12.0,17.0,27,-99.99,,,-99.99,,2013-05-20 01:21:00,
2013-05-19 18:31:00,67.0,32.0,-100.00,NW,315,12.0,17.0,27,-99.99,,,-99.99,,2013-05-20 01:31:00,
2013-05-19 18:42:00,66.0,26.0,-100.00,NW,316,10.0,17.0,22,-99.99,,,-99.99,,2013-05-20 01:42:00,
2013-05-19 18:52:00,66.0,26.0,-100.00,NW,316,10.0,17.0,22,-99.99,,,-99.99,,2013-05-20 01:52:00,
2013-05-19 19:02:00,65.0,28.0,-100.00,NW,313,13.0,19.0,25,-99.99,,,-99.99,,2013-05-20 02:02:00,
2013-05-19 19:11:00,65.0,28.0,-100.00,NW,313,13.0,19.0,25,-99.99,,,-99.99,,2013-05-20 02:11:00,
2013-05-19 19:21:00,64.0,28.0,-100.00,NW,313,14.0,20.0,26,-99.99,,,-99.99,,2013-05-20 02:21:00,
2013-05-19 19:31:00,64.0,28.0,-100.00,NW,313,14.0,20.0,26,-99.99,,,-99.99,,2013-05-20 02:31:00,
2013-05-19 20:01:00,62.0,29.0,-100.00,NW,316,12.0,19.0,29,-99.99,,,-99.99,,2013-05-20 03:01:00,
2013-05-19 20:11:00,59.0,28.0,-100.00,NW,312,12.0,18.0,31,-99.99,,,-99.99,,2013-05-20 03:11:00,
2013-05-19 20:21:00,59.0,29.0,-100.00,NW,312,12.0,18.0,32,-99.99,,,-99.99,,2013-05-20 03:21:00,
2013-05-19 20:33:00,59.0,29.0,-100.00,NW,312,12.0,18.0,32,-99.99,,,-99.99,,2013-05-20 03:33:00,
2013-05-19 20:42:00,56.0,28.0,-100.00,NW,304,7.0,12.0,34,-99.99,,,-99.99,,2013-05-20 03:42:00,
2013-05-19 20:52:00,55.0,28.0,-100.00,WNW,294,8.0,12.0,35,-99.99,,,-99.99,,2013-05-20 03:52:00,
2013-05-19 21:02:00,55.0,27.0,-100.00,WNW,294,8.0,11.0,34,-99.99,,,-99.99,,2013-05-20 04:02:00,
2013-05-19 21:33:00,54.0,29.0,-100.00,NW,308,5.0,7.0,38,-99.99,,,-99.99,,2013-05-20 04:33:00,
2013-05-19 21:42:00,54.0,29.0,-100.00,NW,308,5.0,7.0,38,-99.99,,,-99.99,,2013-05-20 04:42:00,
2013-05-19 21:52:00,54.0,29.0,-100.00,NW,320,3.0,6.0,38,-99.99,,,-99.99,,2013-05-20 04:52:00,
2013-05-19 22:02:00,55.0,25.0,-100.00,NNW,333,2.0,4.0,32,-99.99,,,-99.99,,2013-05-20 05:02:00,
2013-05-19 22:11:00,55.0,24.0,-100.00,NNW,344,2.0,5.0,30,-99.99,,,-99.99,,2013-05-20 05:11:00,
2013-05-19 22:21:00,53.0,26.0,-100.00,NNE,23,2.0,4.0,35,-99.99,,,-99.99,,2013-05-20 05:21:00,
2013-05-19 22:32:00,53.0,26.0,-100.00,NNE,23,2.0,4.0,35,-99.99,,,-99.99,,2013-05-20 05:32:00,
2013-05-19 22:42:00,52.0,28.0,-100.00,ENE,65,1.0,2.0,40,-99.99,,,-99.99,,2013-05-20 05:42:00,
2013-05-19 22:52:00,52.0,28.0,-100.00,ENE,65,1.0,2.0,40,-99.99,,,-99.99,,2013-05-20 05:52:00,
2013-05-19 23:01:00,51.0,26.0,-100.00,East,92,1.0,4.0,37,-99.99,,,-99.99,,2013-05-20 06:01:00,
2013-05-19 23:11:00,51.0,26.0,-100.00,East,92,1.0,4.0,37,-99.99,,,-99.99,,2013-05-20 06:11:00,
2013-05-19 23:21:00,45.0,36.0,-100.00,SSW,195,3.0,5.0,70,-99.99,,,-99.99,,2013-05-20 06:21:00,
2013-05-19 23:32:00,45.0,36.0,-100.00,SSW,195,3.0,5.0,70,-99.99,,,-99.99,,2013-05-20 06:32:00,
2013-05-19 23:41:00,48.0,33.0,-100.00,SSW,212,2.0,5.0,57,-99.99,,,-99.99,,2013-05-20 06:41:00,
2013-05-19 23:52:00,48.0,33.0,-100.00,SSW,212,2.0,5.0,57,-99.99,,,-99.99,,2013-05-20 06:52:00,